createdAt,value
2023-03-04T00:02:16.151Z,100.00
2023-03-04T00:04:43.912Z,100.00
2023-03-04T00:07:12.613Z,100.00
2023-03-04T00:09:40.350Z,100.00
2023-03-04T00:12:08.943Z,100.00
2023-03-04T00:14:36.844Z,100.00
2023-03-04T00:17:04.717Z,100.00
2023-03-04T00:19:35.047Z,100.00
2023-03-04T00:22:03.921Z,100.00
2023-03-04T00:24:31.856Z,100.00
2023-03-04T00:26:59.713Z,100.00
2023-03-04T00:29:27.747Z,100.00
2023-03-04T00:31:55.692Z,100.00
2023-03-04T00:34:23.525Z,100.00
2023-03-04T00:36:52.676Z,100.00
2023-03-04T00:39:20.415Z,100.00
2023-03-04T00:41:48.166Z,100.00
2023-03-04T00:44:15.938Z,100.00
2023-03-04T00:46:43.658Z,100.00
2023-03-04T00:49:11.420Z,100.00
2023-03-04T00:51:39.208Z,100.00
2023-03-04T00:54:08.307Z,100.00
2023-03-04T00:56:36.078Z,100.00
2023-03-04T00:59:03.880Z,100.00
2023-03-04T01:01:31.627Z,100.00
2023-03-04T01:03:59.366Z,100.00
2023-03-04T01:06:27.177Z,100.00
2023-03-04T01:08:54.939Z,100.00
2023-03-04T01:11:24.143Z,100.00
2023-03-04T01:13:51.985Z,100.00
2023-03-04T01:16:19.881Z,100.00
2023-03-04T01:18:47.794Z,100.00
2023-03-04T01:21:16.021Z,100.00
2023-03-04T01:23:44.149Z,100.00
2023-03-04T01:26:11.946Z,100.00
2023-03-04T01:28:41.170Z,100.00
2023-03-04T01:31:09.000Z,100.00
2023-03-04T01:33:36.762Z,100.00
2023-03-04T01:36:04.902Z,100.00
2023-03-04T01:38:32.634Z,100.00
2023-03-04T01:41:00.505Z,100.00
2023-03-04T01:43:30.064Z,100.00
2023-03-04T01:45:59.958Z,100.00
2023-03-04T01:48:30.028Z,100.00
2023-03-04T01:50:59.269Z,100.00
2023-03-04T01:53:28.916Z,100.00
2023-03-04T01:55:58.746Z,100.00
2023-03-04T01:58:29.428Z,100.00
2023-03-04T02:00:57.230Z,100.00
2023-03-04T02:03:26.803Z,100.00
2023-03-04T02:05:55.135Z,100.00
2023-03-04T02:08:25.413Z,100.00
2023-03-04T02:10:53.691Z,100.00
2023-03-04T02:13:21.625Z,100.00
2023-03-04T02:15:50.003Z,100.00
2023-03-04T02:18:20.408Z,100.00
2023-03-04T02:20:59.293Z,100.00
2023-03-04T02:23:34.236Z,100.00
2023-03-04T02:26:16.453Z,100.00
2023-03-04T02:28:44.823Z,100.00
2023-03-04T02:31:23.339Z,100.00
2023-03-04T02:33:51.973Z,100.00
2023-03-04T02:36:20.016Z,100.00
2023-03-04T02:38:47.776Z,100.00
2023-03-04T02:41:20.689Z,100.00
2023-03-04T02:43:50.195Z,100.00
2023-03-04T02:46:18.020Z,100.00
2023-03-04T02:48:45.813Z,100.00
2023-03-04T02:51:13.552Z,100.00
2023-03-04T02:53:41.343Z,100.00
2023-03-04T02:56:09.541Z,100.00
2023-03-04T02:58:40.214Z,100.00
2023-03-04T03:01:08.104Z,100.00
2023-03-04T03:03:35.875Z,100.00
2023-03-04T03:06:03.747Z,100.00
2023-03-04T03:08:31.531Z,100.00
2023-03-04T03:10:59.279Z,100.00
2023-03-04T03:13:27.057Z,100.00
2023-03-04T03:15:56.297Z,100.00
2023-03-04T03:18:24.116Z,100.00
2023-03-04T03:20:51.837Z,100.00
2023-03-04T03:23:20.997Z,100.00
2023-03-04T03:25:48.723Z,100.00
2023-03-04T03:28:16.463Z,100.00
2023-03-04T03:30:44.310Z,100.00
2023-03-04T03:33:13.396Z,100.00
2023-03-04T03:35:41.145Z,100.00
2023-03-04T03:38:09.064Z,100.00
2023-03-04T03:40:36.832Z,100.00
2023-03-04T03:43:04.993Z,100.00
2023-03-04T03:45:33.130Z,100.00
2023-03-04T03:48:01.041Z,100.00
2023-03-04T03:50:30.128Z,100.00
2023-03-04T03:52:58.246Z,100.00
2023-03-04T03:55:27.084Z,100.00
2023-03-04T03:57:54.823Z,100.00
2023-03-04T04:00:23.005Z,100.00
2023-03-04T04:02:50.887Z,100.00
2023-03-04T04:05:18.850Z,100.00
2023-03-04T04:07:47.978Z,100.00
2023-03-04T04:10:15.701Z,100.00
2023-03-04T04:12:43.444Z,100.00
2023-03-04T04:15:12.888Z,100.00
2023-03-04T04:17:40.953Z,100.00
2023-03-04T04:20:10.158Z,100.00
2023-03-04T04:22:37.952Z,100.00
2023-03-04T04:25:10.575Z,100.00
2023-03-04T04:27:38.641Z,100.00
2023-03-04T04:30:07.462Z,100.00
2023-03-04T04:32:35.305Z,100.00
2023-03-04T04:35:03.204Z,100.00
2023-03-04T04:37:31.001Z,100.00
2023-03-04T04:39:58.742Z,100.00
2023-03-04T04:42:28.328Z,100.00
2023-03-04T04:44:57.339Z,100.00
2023-03-04T04:47:25.087Z,100.00
2023-03-04T04:49:52.920Z,100.00
2023-03-04T04:52:20.646Z,100.00
2023-03-04T04:54:48.424Z,100.00
2023-03-04T04:57:16.218Z,100.00
2023-03-04T04:59:45.348Z,100.00
2023-03-04T05:02:13.089Z,100.00
2023-03-04T05:04:40.888Z,100.00
2023-03-04T05:07:08.648Z,100.00
2023-03-04T05:09:36.381Z,100.00
2023-03-04T05:12:04.459Z,100.00
2023-03-04T05:14:32.207Z,100.00
2023-03-04T05:17:01.314Z,100.00
2023-03-04T05:19:29.587Z,100.00
2023-03-04T05:21:57.358Z,100.00
2023-03-04T05:24:25.232Z,100.00
2023-03-04T05:26:53.017Z,100.00
2023-03-04T05:29:20.996Z,100.00
2023-03-04T05:31:48.743Z,100.00
2023-03-04T05:34:18.158Z,100.00
2023-03-04T05:36:45.944Z,100.00
2023-03-04T05:39:13.734Z,100.00
2023-03-04T05:41:41.532Z,100.00
2023-03-04T05:44:09.296Z,100.00
2023-03-04T05:46:37.116Z,100.00
2023-03-04T05:49:04.919Z,100.00
2023-03-04T05:51:34.017Z,100.00
2023-03-04T05:54:01.769Z,100.00
2023-03-04T05:56:30.492Z,100.00
2023-03-04T05:58:59.031Z,100.00
2023-03-04T06:01:27.492Z,100.00
2023-03-04T06:03:55.397Z,100.00
2023-03-04T06:06:23.234Z,100.00
2023-03-04T06:08:52.384Z,100.00
2023-03-04T06:11:20.221Z,100.00
2023-03-04T06:13:48.000Z,100.00
2023-03-04T06:16:15.938Z,100.00
2023-03-04T06:18:43.805Z,100.00
2023-03-04T06:21:11.577Z,100.00
2023-03-04T06:23:39.390Z,100.00
2023-03-04T06:26:12.166Z,100.00
2023-03-04T06:28:39.920Z,100.00
2023-03-04T06:31:07.759Z,100.00
2023-03-04T06:33:35.560Z,100.00
2023-03-04T06:36:03.702Z,100.00
2023-03-04T06:38:31.618Z,100.00
2023-03-04T06:41:09.153Z,100.00
2023-03-04T06:43:37.174Z,100.00
2023-03-04T06:46:05.339Z,100.00
2023-03-04T06:48:33.097Z,100.00
2023-03-04T06:51:06.817Z,100.00
2023-03-04T06:53:34.563Z,100.00
2023-03-04T06:56:02.543Z,100.00
2023-03-04T06:58:31.792Z,100.00
2023-03-04T07:01:17.152Z,100.00
2023-03-04T07:03:45.835Z,100.00
2023-03-04T07:06:14.842Z,100.00
2023-03-04T07:08:43.358Z,100.00
2023-03-04T07:11:11.531Z,100.00
2023-03-04T07:13:40.861Z,100.00
2023-03-04T07:16:10.739Z,100.00
2023-03-04T07:18:39.558Z,100.00
2023-03-04T07:21:09.053Z,100.00
2023-03-04T07:23:37.804Z,100.00
2023-03-04T07:26:06.215Z,100.00
2023-03-04T07:28:34.598Z,100.00
2023-03-04T07:31:16.574Z,100.00
2023-03-04T07:33:44.334Z,100.00
2023-03-04T07:36:14.833Z,100.00
2023-03-04T07:38:45.193Z,100.00
2023-03-04T07:41:13.129Z,100.00
2023-03-04T07:43:40.874Z,100.00
2023-03-04T07:46:10.484Z,100.00
2023-03-04T07:48:38.364Z,100.00
2023-03-04T07:51:08.693Z,100.00
2023-03-04T07:53:38.119Z,100.00
2023-03-04T07:56:07.370Z,100.00
2023-03-04T07:58:35.161Z,100.00
2023-03-04T08:01:03.022Z,100.00
2023-03-04T08:03:32.138Z,100.00
2023-03-04T08:05:59.868Z,100.00
2023-03-04T08:08:27.639Z,100.00
2023-03-04T08:10:55.424Z,100.00
2023-03-04T08:13:25.554Z,100.00
2023-03-04T08:15:53.711Z,100.00
2023-03-04T08:18:21.534Z,100.00
2023-03-04T08:20:50.615Z,100.00
2023-03-04T08:23:18.316Z,97.61
2023-03-04T08:25:47.154Z,97.68
2023-03-04T08:28:16.069Z,97.49
2023-03-04T08:30:44.088Z,96.71
2023-03-04T08:33:12.080Z,96.16
2023-03-04T08:35:41.231Z,96.96
2023-03-04T08:38:10.468Z,95.75
2023-03-04T08:40:38.250Z,93.44
2023-03-04T08:43:06.008Z,90.68
2023-03-04T08:45:33.741Z,88.31
2023-03-04T08:48:01.543Z,84.89
2023-03-04T08:50:29.326Z,84.86
2023-03-04T08:52:57.073Z,83.58
2023-03-04T08:55:26.215Z,83.06
2023-03-04T08:57:54.232Z,81.36
2023-03-04T09:00:22.339Z,80.64
2023-03-04T09:02:50.312Z,78.89
2023-03-04T09:05:18.341Z,77.64
2023-03-04T09:07:46.223Z,76.55
2023-03-04T09:10:14.091Z,73.97
2023-03-04T09:12:43.180Z,73.24
2023-03-04T09:15:12.177Z,73.19
2023-03-04T09:17:40.483Z,73.19
2023-03-04T09:20:11.388Z,72.75
2023-03-04T09:22:39.806Z,72.00
2023-03-04T09:25:12.857Z,71.97
2023-03-04T09:27:40.924Z,71.90
2023-03-04T09:30:11.881Z,71.02
2023-03-04T09:32:39.997Z,71.33
2023-03-04T09:35:08.387Z,71.17
2023-03-04T09:37:36.133Z,71.31
2023-03-04T09:40:04.781Z,72.12
2023-03-04T09:42:36.607Z,70.92
2023-03-04T09:45:06.513Z,70.43
2023-03-04T09:47:38.861Z,70.51
2023-03-04T09:50:10.041Z,69.92
2023-03-04T09:52:52.274Z,69.68
2023-03-04T09:55:25.294Z,67.71
2023-03-04T09:57:58.316Z,67.15
2023-03-04T10:00:31.851Z,66.05
2023-03-04T10:03:10.839Z,66.03
2023-03-04T10:05:43.363Z,65.98
2023-03-04T10:08:35.652Z,65.68
2023-03-04T10:11:07.936Z,63.65
2023-03-04T10:13:41.376Z,64.38
2023-03-04T10:16:14.051Z,63.86
2023-03-04T10:18:51.245Z,62.88
2023-03-04T10:21:25.305Z,62.33
2023-03-04T10:23:54.339Z,63.56
2023-03-04T10:26:23.476Z,62.10
2023-03-04T10:28:51.459Z,61.93
2023-03-04T10:31:28.582Z,62.00
2023-03-04T10:33:57.723Z,61.54
2023-03-04T10:36:39.737Z,62.41
2023-03-04T10:39:10.872Z,61.96
2023-03-04T10:41:43.017Z,61.38
2023-03-04T10:44:17.443Z,61.32
2023-03-04T10:46:47.420Z,61.12
2023-03-04T10:49:18.289Z,60.59
2023-03-04T10:51:48.573Z,61.36
2023-03-04T10:54:26.150Z,61.59
2023-03-04T10:56:57.148Z,61.78
2023-03-04T10:59:46.134Z,62.12
2023-03-04T11:02:33.172Z,60.75
2023-03-04T11:05:19.490Z,60.60
2023-03-04T11:07:56.650Z,60.44
2023-03-04T11:10:29.774Z,60.81
2023-03-04T11:13:02.062Z,60.63
2023-03-04T11:15:32.934Z,60.75
2023-03-04T11:18:03.750Z,60.14
2023-03-04T11:20:35.785Z,59.98
2023-03-04T11:23:06.599Z,59.35
2023-03-04T11:25:41.383Z,59.77
2023-03-04T11:28:16.080Z,59.05
2023-03-04T11:30:49.571Z,59.92
2023-03-04T11:33:23.646Z,58.85
2023-03-04T11:36:04.942Z,57.42
2023-03-04T11:38:36.376Z,57.73
2023-03-04T11:41:11.188Z,59.05
2023-03-04T11:43:40.837Z,57.15
2023-03-04T11:46:48.443Z,57.25
2023-03-04T11:49:32.410Z,55.95
2023-03-04T11:52:11.378Z,55.57
2023-03-04T11:54:48.647Z,55.59
2023-03-04T11:57:30.267Z,55.69
2023-03-04T12:00:08.920Z,55.22
2023-03-04T12:02:43.713Z,54.76
2023-03-04T12:05:20.850Z,55.00
2023-03-04T12:08:18.543Z,54.76
2023-03-04T12:10:55.124Z,55.32
2023-03-04T12:13:59.389Z,54.70
2023-03-04T12:16:52.649Z,55.21
2023-03-04T12:19:29.045Z,54.98
2023-03-04T12:22:21.359Z,55.60
2023-03-04T12:25:20.407Z,55.60
2023-03-04T12:27:59.899Z,55.26
2023-03-04T12:30:40.710Z,55.18
2023-03-04T12:33:18.390Z,56.26
2023-03-04T12:35:53.401Z,55.74
2023-03-04T12:38:55.345Z,55.40
2023-03-04T12:41:34.333Z,55.40
2023-03-04T12:44:16.931Z,55.92
2023-03-04T12:47:11.666Z,55.86
2023-03-04T12:49:52.930Z,56.04
2023-03-04T12:52:33.118Z,55.66
2023-03-04T12:55:04.986Z,55.47
2023-03-04T12:57:34.530Z,55.86
2023-03-04T13:00:18.360Z,55.88
2023-03-04T13:02:58.389Z,55.79
2023-03-04T13:05:37.615Z,56.21
2023-03-04T13:08:19.722Z,55.97
2023-03-04T13:10:47.535Z,55.21
2023-03-04T13:13:40.347Z,54.63
2023-03-04T13:16:33.239Z,54.48
2023-03-04T13:19:04.087Z,54.08
2023-03-04T13:21:32.917Z,54.67
2023-03-04T13:24:23.013Z,55.17
2023-03-04T13:26:50.951Z,54.01
2023-03-04T13:29:37.076Z,54.13
2023-03-04T13:32:06.456Z,55.29
2023-03-04T13:34:46.568Z,54.27
2023-03-04T13:37:34.032Z,54.61
2023-03-04T13:40:33.817Z,54.30
2023-03-04T13:43:27.344Z,54.46
2023-03-04T13:45:56.783Z,54.39
2023-03-04T13:48:29.955Z,54.73
2023-03-04T13:50:58.920Z,54.12
2023-03-04T13:53:45.615Z,53.58
2023-03-04T13:56:31.412Z,54.42
2023-03-04T13:59:26.935Z,53.60
2023-03-04T14:02:02.173Z,53.29
2023-03-04T14:04:33.448Z,53.79
2023-03-04T14:07:02.932Z,53.92
2023-03-04T14:09:32.719Z,53.87
2023-03-04T14:12:03.813Z,53.55
2023-03-04T14:14:47.598Z,54.09
2023-03-04T14:17:20.685Z,55.22
2023-03-04T14:19:49.702Z,54.99
2023-03-04T14:22:23.231Z,54.50
2023-03-04T14:25:02.511Z,55.88
2023-03-04T14:27:33.027Z,55.79
2023-03-04T14:30:02.981Z,55.45
2023-03-04T14:32:32.525Z,54.70
2023-03-04T14:35:03.593Z,54.99
2023-03-04T14:37:40.091Z,55.19
2023-03-04T14:40:10.021Z,54.72
2023-03-04T14:42:42.425Z,55.05
2023-03-04T14:45:13.332Z,54.71
2023-03-04T14:47:45.506Z,54.69
2023-03-04T14:50:16.134Z,54.71
2023-03-04T14:52:46.362Z,54.43
2023-03-04T14:55:22.435Z,55.16
2023-03-04T14:57:58.191Z,55.17
2023-03-04T15:00:30.569Z,54.96
2023-03-04T15:03:02.412Z,55.14
2023-03-04T15:05:32.185Z,55.42
2023-03-04T15:08:02.012Z,55.32
2023-03-04T15:10:32.050Z,55.51
2023-03-04T15:13:03.669Z,55.71
2023-03-04T15:15:36.492Z,55.43
2023-03-04T15:18:17.548Z,55.33
2023-03-04T15:20:54.516Z,55.79
2023-03-04T15:23:22.298Z,55.77
2023-03-04T15:25:52.870Z,55.73
2023-03-04T15:28:21.509Z,55.64
2023-03-04T15:30:49.624Z,55.02
2023-03-04T15:33:21.161Z,55.73
2023-03-04T15:35:55.121Z,55.69
2023-03-04T15:38:23.438Z,56.12
2023-03-04T15:40:54.292Z,55.84
2023-03-04T15:43:24.054Z,56.28
2023-03-04T15:45:52.818Z,56.00
2023-03-04T15:48:22.124Z,56.10
2023-03-04T15:50:54.909Z,56.02
2023-03-04T15:53:29.503Z,55.95
2023-03-04T15:55:57.263Z,55.86
2023-03-04T15:58:25.228Z,55.60
2023-03-04T16:00:52.962Z,56.03
2023-03-04T16:03:22.877Z,56.76
2023-03-04T16:05:52.782Z,57.25
2023-03-04T16:08:22.262Z,57.36
2023-03-04T16:10:50.005Z,57.42
2023-03-04T16:13:19.557Z,56.94
2023-03-04T16:15:48.029Z,57.03
2023-03-04T16:18:16.489Z,57.01
2023-03-04T16:20:48.971Z,57.31
2023-03-04T16:23:20.030Z,57.73
2023-03-04T16:25:49.574Z,57.54
2023-03-04T16:28:17.341Z,57.89
2023-03-04T16:30:45.159Z,58.65
2023-03-04T16:33:15.013Z,58.02
2023-03-04T16:35:46.510Z,58.16
2023-03-04T16:38:23.172Z,58.88
2023-03-04T16:40:50.993Z,58.19
2023-03-04T16:43:18.844Z,58.41
2023-03-04T16:45:46.649Z,58.50
2023-03-04T16:48:14.371Z,59.38
2023-03-04T16:50:43.104Z,59.80
2023-03-04T16:53:25.510Z,60.04
2023-03-04T16:55:53.391Z,60.77
2023-03-04T16:58:21.505Z,60.86
2023-03-04T17:00:49.443Z,61.14
2023-03-04T17:03:17.240Z,60.99
2023-03-04T17:05:45.297Z,60.90
2023-03-04T17:08:13.030Z,62.00
2023-03-04T17:10:42.286Z,61.08
2023-03-04T17:13:10.031Z,61.38
2023-03-04T17:15:37.884Z,61.69
2023-03-04T17:18:05.832Z,62.19
2023-03-04T17:20:33.613Z,62.09
2023-03-04T17:23:01.357Z,62.22
2023-03-04T17:25:29.147Z,62.53
2023-03-04T17:27:58.253Z,62.44
2023-03-04T17:30:28.154Z,62.71
2023-03-04T17:32:55.929Z,63.12
2023-03-04T17:35:25.673Z,63.43
2023-03-04T17:37:53.458Z,63.50
2023-03-04T17:40:21.420Z,64.00
2023-03-04T17:42:49.139Z,64.59
2023-03-04T17:45:18.431Z,65.38
2023-03-04T17:47:46.548Z,65.78
2023-03-04T17:50:14.273Z,66.16
2023-03-04T17:52:42.508Z,66.73
2023-03-04T17:55:11.196Z,67.37
2023-03-04T17:57:39.585Z,67.59
2023-03-04T18:00:08.576Z,68.05
2023-03-04T18:02:37.721Z,68.19
2023-03-04T18:05:07.453Z,67.95
2023-03-04T18:07:35.218Z,68.92
2023-03-04T18:10:03.157Z,69.08
2023-03-04T18:12:30.927Z,69.78
2023-03-04T18:14:58.704Z,70.21
2023-03-04T18:17:26.803Z,70.24
2023-03-04T18:19:56.718Z,70.51
2023-03-04T18:22:24.707Z,71.39
2023-03-04T18:24:52.764Z,72.04
2023-03-04T18:27:20.527Z,72.21
2023-03-04T18:29:48.322Z,72.06
2023-03-04T18:32:16.127Z,72.51
2023-03-04T18:34:43.885Z,72.76
2023-03-04T18:37:13.005Z,73.00
2023-03-04T18:39:40.968Z,72.91
2023-03-04T18:42:08.952Z,72.79
2023-03-04T18:44:36.809Z,73.47
2023-03-04T18:47:04.764Z,73.27
2023-03-04T18:49:32.825Z,73.48
2023-03-04T18:52:00.645Z,73.25
2023-03-04T18:54:29.916Z,72.98
2023-03-04T18:57:01.922Z,72.82
2023-03-04T18:59:36.995Z,72.95
2023-03-04T19:02:16.935Z,73.06
2023-03-04T19:04:44.877Z,73.49
2023-03-04T19:07:12.620Z,73.71
2023-03-04T19:09:41.706Z,73.73
2023-03-04T19:12:10.060Z,73.38
2023-03-04T19:14:37.947Z,73.25
2023-03-04T19:17:05.800Z,72.63
2023-03-04T19:19:34.117Z,72.38
2023-03-04T19:22:02.059Z,72.89
2023-03-04T19:24:30.179Z,73.09
2023-03-04T19:26:59.383Z,73.35
2023-03-04T19:29:30.505Z,72.93
2023-03-04T19:31:58.871Z,73.35
2023-03-04T19:34:26.819Z,73.18
2023-03-04T19:36:54.574Z,73.69
2023-03-04T19:39:22.678Z,73.92
2023-03-04T19:41:50.598Z,74.38
2023-03-04T19:44:19.821Z,74.60
2023-03-04T19:46:47.639Z,75.00
2023-03-04T19:49:15.381Z,74.89
2023-03-04T19:51:43.148Z,75.02
2023-03-04T19:54:10.980Z,75.07
2023-03-04T19:56:38.872Z,75.21
2023-03-04T19:59:06.756Z,75.79
2023-03-04T20:01:37.783Z,75.73
2023-03-04T20:04:08.488Z,75.42
2023-03-04T20:06:37.742Z,75.59
2023-03-04T20:09:05.997Z,75.55
2023-03-04T20:11:39.234Z,75.29
2023-03-04T20:14:12.215Z,75.00
2023-03-04T20:16:41.675Z,75.25
2023-03-04T20:19:09.544Z,75.52
2023-03-04T20:21:37.336Z,75.97
2023-03-04T20:24:05.688Z,75.85
2023-03-04T20:26:33.536Z,75.91
2023-03-04T20:29:01.545Z,76.19
2023-03-04T20:31:32.005Z,76.32
2023-03-04T20:34:01.406Z,76.54
2023-03-04T20:36:30.734Z,77.08
2023-03-04T20:39:05.413Z,77.07
2023-03-04T20:41:38.981Z,77.31
2023-03-04T20:44:08.582Z,77.06
2023-03-04T20:46:39.877Z,77.39
2023-03-04T20:49:11.606Z,77.46
2023-03-04T20:51:39.921Z,77.29
2023-03-04T20:54:08.550Z,77.06
2023-03-04T20:56:37.399Z,77.08
2023-03-04T20:59:08.185Z,76.95
2023-03-04T21:01:37.084Z,77.12
2023-03-04T21:04:05.486Z,77.17
2023-03-04T21:06:34.724Z,77.60
2023-03-04T21:09:04.714Z,77.44
2023-03-04T21:11:39.895Z,77.50
2023-03-04T21:14:12.499Z,77.18
2023-03-04T21:16:40.282Z,77.68
2023-03-04T21:19:08.228Z,77.69
2023-03-04T21:21:37.404Z,78.10
2023-03-04T21:24:05.409Z,77.92
2023-03-04T21:26:33.335Z,77.83
2023-03-04T21:29:01.065Z,78.15
2023-03-04T21:31:36.021Z,78.24
2023-03-04T21:34:04.011Z,78.34
2023-03-04T21:36:31.753Z,78.32
2023-03-04T21:39:00.859Z,78.05
2023-03-04T21:41:30.397Z,78.19
2023-03-04T21:43:58.139Z,78.81
2023-03-04T21:46:25.894Z,78.58
2023-03-04T21:48:53.690Z,78.96
2023-03-04T21:51:21.469Z,78.39
2023-03-04T21:53:49.344Z,78.81
2023-03-04T21:56:18.495Z,78.50
2023-03-04T21:58:46.256Z,78.49
2023-03-04T22:01:15.627Z,79.18
2023-03-04T22:03:43.834Z,78.99
2023-03-04T22:06:13.328Z,79.27
2023-03-04T22:08:42.015Z,79.55
2023-03-04T22:11:12.075Z,79.40
2023-03-04T22:13:41.287Z,79.75
2023-03-04T22:16:10.163Z,79.58
2023-03-04T22:18:39.567Z,79.40
2023-03-04T22:21:10.283Z,79.69
2023-03-04T22:23:38.226Z,79.78
2023-03-04T22:26:08.180Z,80.00
2023-03-04T22:28:36.585Z,80.02
2023-03-04T22:31:14.588Z,79.53
2023-03-04T22:33:42.414Z,79.70
2023-03-04T22:36:10.327Z,79.79
2023-03-04T22:38:38.230Z,79.81
2023-03-04T22:41:06.631Z,79.92
2023-03-04T22:43:34.463Z,79.98
2023-03-04T22:46:02.209Z,79.91
2023-03-04T22:48:31.298Z,80.05
2023-03-04T22:51:05.444Z,80.42
2023-03-04T22:53:33.193Z,80.04
2023-03-04T22:56:01.088Z,80.00
2023-03-04T22:58:28.838Z,79.94
2023-03-04T23:00:56.623Z,79.74
2023-03-04T23:03:24.581Z,79.40
2023-03-04T23:06:03.362Z,79.49
2023-03-04T23:08:31.370Z,79.88
2023-03-04T23:10:59.136Z,80.14
2023-03-04T23:13:27.154Z,79.89
2023-03-04T23:15:54.975Z,80.14
2023-03-04T23:18:22.747Z,80.38
2023-03-04T23:20:50.497Z,80.17
2023-03-04T23:23:19.689Z,80.07
2023-03-04T23:25:49.224Z,79.97
2023-03-04T23:28:16.957Z,80.41
2023-03-04T23:30:44.779Z,80.60
2023-03-04T23:33:12.542Z,80.56
2023-03-04T23:35:40.345Z,79.88
2023-03-04T23:38:08.177Z,80.67
2023-03-04T23:40:37.586Z,80.65
2023-03-04T23:43:06.499Z,80.64
2023-03-04T23:45:34.399Z,80.91
2023-03-04T23:48:02.167Z,80.72
2023-03-04T23:50:32.162Z,80.76
2023-03-04T23:52:59.956Z,80.81
2023-03-04T23:55:29.280Z,80.41
2023-03-04T23:57:58.343Z,80.65
